Terminal Aerodrome Forecast
Issued by NWS Sterling, VA

Current Version | Previous Version | Graphics & Text | Print | Product List | Glossary On
Versions: 1 2 3 4 5 6 7 8 9 10 11 12 13 14 15 16 17 18 19 20 21 22 23
000
FTUS41 KLWX 211120
TAFIAD
TAF
KIAD 211120Z 2112/2218 06007KT P6SM BKN210
     FM212000 16008KT P6SM SCT050 BKN250
     FM220800 18004KT P6SM OVC120=

USA.gov is the U.S. government's official web portal to all federal, state and local government web resources and services.